sensor_id;sensor_type;location;lat;lon;timestamp;pressure;altitude;pressure_sealevel;temperature;humidity
45275;BME280;31019;43.780;25.948;2023-01-31T00:01:17;100562.50;;;-0.79;100.00
45275;BME280;31019;43.780;25.948;2023-01-31T00:03:45;100562.50;;;-0.79;100.00
45275;BME280;31019;43.780;25.948;2023-01-31T00:06:16;100558.97;;;-0.78;100.00
45275;BME280;31019;43.780;25.948;2023-01-31T00:08:45;100564.28;;;-0.80;100.00
45275;BME280;31019;43.780;25.948;2023-01-31T00:11:12;100561.13;;;-0.74;100.00
45275;BME280;31019;43.780;25.948;2023-01-31T00:13:40;100573.22;;;-0.82;100.00
45275;BME280;31019;43.780;25.948;2023-01-31T00:16:08;100573.75;;;-0.79;100.00
45275;BME280;31019;43.780;25.948;2023-01-31T00:18:36;100569.13;;;-0.75;100.00
45275;BME280;31019;43.780;25.948;2023-01-31T00:21:05;100575.28;;;-0.76;100.00
45275;BME280;31019;43.780;25.948;2023-01-31T00:23:32;100560.44;;;-0.76;100.00
45275;BME280;31019;43.780;25.948;2023-01-31T00:26:10;100563.47;;;-0.71;100.00
45275;BME280;31019;43.780;25.948;2023-01-31T00:28:37;100566.91;;;-0.70;100.00
45275;BME280;31019;43.780;25.948;2023-01-31T00:31:04;100560.44;;;-0.76;100.00
45275;BME280;31019;43.780;25.948;2023-01-31T00:33:32;100554.97;;;-0.73;100.00
45275;BME280;31019;43.780;25.948;2023-01-31T00:36:02;100545.91;;;-0.68;100.00
45275;BME280;31019;43.780;25.948;2023-01-31T00:38:29;100544.53;;;-0.53;100.00
45275;BME280;31019;43.780;25.948;2023-01-31T00:40:56;100550.31;;;-0.59;100.00
45275;BME280;31019;43.780;25.948;2023-01-31T00:43:24;100548.66;;;-0.60;100.00
45275;BME280;31019;43.780;25.948;2023-01-31T00:45:51;100547.56;;;-0.38;100.00
45275;BME280;31019;43.780;25.948;2023-01-31T00:48:18;100544.69;;;-0.45;100.00
45275;BME280;31019;43.780;25.948;2023-01-31T00:50:45;100548.22;;;-0.46;100.00
45275;BME280;31019;43.780;25.948;2023-01-31T00:53:11;100537.69;;;-0.54;100.00
45275;BME280;31019;43.780;25.948;2023-01-31T00:55:38;100539.59;;;-0.47;100.00
45275;BME280;31019;43.780;25.948;2023-01-31T00:58:05;100550.25;;;-0.11;100.00
45275;BME280;31019;43.780;25.948;2023-01-31T01:00:33;100550.56;;;-0.24;100.00
45275;BME280;31019;43.780;25.948;2023-01-31T01:03:00;100548.75;;;-0.23;100.00
45275;BME280;31019;43.780;25.948;2023-01-31T01:05:26;100553.28;;;-0.25;100.00
45275;BME280;31019;43.780;25.948;2023-01-31T01:07:53;100561.38;;;-0.18;100.00
45275;BME280;31019;43.780;25.948;2023-01-31T01:10:20;100560.38;;;0.02;100.00
45275;BME280;31019;43.780;25.948;2023-01-31T01:12:47;100551.78;;;-0.18;100.00
45275;BME280;31019;43.780;25.948;2023-01-31T01:15:14;100545.84;;;-0.10;100.00
45275;BME280;31019;43.780;25.948;2023-01-31T01:17:42;100530.56;;;0.05;100.00
45275;BME280;31019;43.780;25.948;2023-01-31T01:20:10;100533.28;;;0.13;100.00
45275;BME280;31019;43.780;25.948;2023-01-31T01:22:36;100541.78;;;0.15;100.00
45275;BME280;31019;43.780;25.948;2023-01-31T01:25:04;100538.72;;;0.29;100.00
45275;BME280;31019;43.780;25.948;2023-01-31T01:27:31;100535.81;;;-0.05;100.00
45275;BME280;31019;43.780;25.948;2023-01-31T01:29:58;100522.56;;;-0.41;100.00
45275;BME280;31019;43.780;25.948;2023-01-31T01:32:26;100514.84;;;-0.33;100.00
45275;BME280;31019;43.780;25.948;2023-01-31T01:34:54;100528.84;;;-0.24;100.00
45275;BME280;31019;43.780;25.948;2023-01-31T01:37:21;100535.47;;;-0.30;100.00
45275;BME280;31019;43.780;25.948;2023-01-31T01:39:49;100535.59;;;-0.31;100.00
45275;BME280;31019;43.780;25.948;2023-01-31T01:42:17;100539.44;;;-0.26;100.00
45275;BME280;31019;43.780;25.948;2023-01-31T01:44:48;100542.03;;;-0.55;100.00
45275;BME280;31019;43.780;25.948;2023-01-31T01:47:19;100543.66;;;-0.05;100.00
45275;BME280;31019;43.780;25.948;2023-01-31T01:49:50;100549.97;;;-0.08;100.00
45275;BME280;31019;43.780;25.948;2023-01-31T01:52:21;100542.03;;;-0.26;100.00
45275;BME280;31019;43.780;25.948;2023-01-31T01:54:51;100539.69;;;-0.29;100.00
45275;BME280;31019;43.780;25.948;2023-01-31T01:57:24;100542.84;;;0.59;100.00
45275;BME280;31019;43.780;25.948;2023-01-31T02:00:02;100538.03;;;0.64;100.00
45275;BME280;31019;43.780;25.948;2023-01-31T02:02:33;100549.63;;;0.15;100.00
45275;BME280;31019;43.780;25.948;2023-01-31T02:04:59;100544.09;;;-0.19;100.00
45275;BME280;31019;43.780;25.948;2023-01-31T02:07:28;100544.75;;;0.39;100.00
45275;BME280;31019;43.780;25.948;2023-01-31T02:09:59;100554.28;;;0.21;100.00
45275;BME280;31019;43.780;25.948;2023-01-31T02:12:27;100551.41;;;1.43;100.00
45275;BME280;31019;43.780;25.948;2023-01-31T02:14:55;100552.75;;;1.91;100.00
45275;BME280;31019;43.780;25.948;2023-01-31T02:17:22;100558.47;;;0.04;100.00
45275;BME280;31019;43.780;25.948;2023-01-31T02:20:00;100565.50;;;-0.16;100.00
45275;BME280;31019;43.780;25.948;2023-01-31T02:22:32;100569.38;;;-0.20;100.00
45275;BME280;31019;43.780;25.948;2023-01-31T02:25:31;100582.44;;;0.27;100.00
45275;BME280;31019;43.780;25.948;2023-01-31T02:31:24;100595.38;;;0.29;100.00
45275;BME280;31019;43.780;25.948;2023-01-31T02:33:59;100593.41;;;-0.16;100.00
45275;BME280;31019;43.780;25.948;2023-01-31T02:36:40;100598.16;;;0.17;100.00
45275;BME280;31019;43.780;25.948;2023-01-31T02:39:16;100586.81;;;-0.20;100.00
45275;BME280;31019;43.780;25.948;2023-01-31T02:41:51;100596.44;;;-0.31;100.00
45275;BME280;31019;43.780;25.948;2023-01-31T02:44:22;100594.53;;;-0.38;100.00
45275;BME280;31019;43.780;25.948;2023-01-31T02:47:32;100592.75;;;-0.48;100.00
45275;BME280;31019;43.780;25.948;2023-01-31T02:50:07;100605.50;;;-0.25;100.00
45275;BME280;31019;43.780;25.948;2023-01-31T02:52:44;100603.59;;;-0.23;100.00
45275;BME280;31019;43.780;25.948;2023-01-31T02:55:14;100597.56;;;-0.33;100.00
45275;BME280;31019;43.780;25.948;2023-01-31T02:58:02;100606.72;;;-0.49;100.00
45275;BME280;31019;43.780;25.948;2023-01-31T03:00:33;100616.75;;;-0.25;100.00
45275;BME280;31019;43.780;25.948;2023-01-31T03:03:04;100620.19;;;-0.34;100.00
45275;BME280;31019;43.780;25.948;2023-01-31T03:05:33;100611.69;;;-0.46;100.00
45275;BME280;31019;43.780;25.948;2023-01-31T03:08:01;100626.94;;;-0.12;100.00
45275;BME280;31019;43.780;25.948;2023-01-31T03:10:52;100615.94;;;-0.25;100.00
45275;BME280;31019;43.780;25.948;2023-01-31T03:13:43;100615.56;;;-0.30;100.00
45275;BME280;31019;43.780;25.948;2023-01-31T03:16:21;100615.38;;;-0.19;100.00
45275;BME280;31019;43.780;25.948;2023-01-31T03:19:10;100616.19;;;-0.18;100.00
45275;BME280;31019;43.780;25.948;2023-01-31T03:21:44;100616.88;;;-0.07;100.00
45275;BME280;31019;43.780;25.948;2023-01-31T03:24:14;100619.25;;;-0.33;100.00
45275;BME280;31019;43.780;25.948;2023-01-31T03:26:42;100620.34;;;-0.26;100.00
45275;BME280;31019;43.780;25.948;2023-01-31T03:29:10;100608.81;;;-0.33;100.00
45275;BME280;31019;43.780;25.948;2023-01-31T03:31:43;100615.41;;;-0.29;100.00
45275;BME280;31019;43.780;25.948;2023-01-31T03:34:12;100610.88;;;-0.27;100.00
45275;BME280;31019;43.780;25.948;2023-01-31T03:36:46;100616.38;;;-0.30;100.00
45275;BME280;31019;43.780;25.948;2023-01-31T03:39:24;100621.84;;;-0.23;100.00
45275;BME280;31019;43.780;25.948;2023-01-31T03:41:57;100621.31;;;-0.17;100.00
45275;BME280;31019;43.780;25.948;2023-01-31T03:44:35;100630.78;;;-0.26;100.00
45275;BME280;31019;43.780;25.948;2023-01-31T03:47:11;100631.03;;;-0.09;100.00
45275;BME280;31019;43.780;25.948;2023-01-31T03:49:41;100625.13;;;0.08;100.00
45275;BME280;31019;43.780;25.948;2023-01-31T03:52:12;100620.06;;;-0.13;100.00
45275;BME280;31019;43.780;25.948;2023-01-31T03:54:46;100630.09;;;-0.18;100.00
45275;BME280;31019;43.780;25.948;2023-01-31T03:57:18;100635.88;;;-0.24;100.00
45275;BME280;31019;43.780;25.948;2023-01-31T03:59:49;100647.25;;;-0.25;100.00
45275;BME280;31019;43.780;25.948;2023-01-31T04:02:19;100648.31;;;0.21;100.00
45275;BME280;31019;43.780;25.948;2023-01-31T04:04:52;100651.81;;;-0.08;100.00
45275;BME280;31019;43.780;25.948;2023-01-31T04:07:23;100653.00;;;0.17;100.00
45275;BME280;31019;43.780;25.948;2023-01-31T04:09:50;100654.69;;;-0.11;100.00
45275;BME280;31019;43.780;25.948;2023-01-31T04:12:17;100659.22;;;-0.03;100.00
45275;BME280;31019;43.780;25.948;2023-01-31T04:14:43;100654.97;;;-0.14;100.00
45275;BME280;31019;43.780;25.948;2023-01-31T04:17:10;100653.34;;;-0.15;100.00
45275;BME280;31019;43.780;25.948;2023-01-31T04:19:37;100644.81;;;-0.17;100.00
45275;BME280;31019;43.780;25.948;2023-01-31T04:22:04;100650.97;;;-0.28;100.00
45275;BME280;31019;43.780;25.948;2023-01-31T04:24:32;100654.97;;;-0.24;100.00
45275;BME280;31019;43.780;25.948;2023-01-31T04:26:59;100654.28;;;-0.16;100.00
45275;BME280;31019;43.780;25.948;2023-01-31T04:29:25;100653.03;;;-0.21;100.00
45275;BME280;31019;43.780;25.948;2023-01-31T04:31:52;100655.38;;;-0.28;100.00
45275;BME280;31019;43.780;25.948;2023-01-31T04:34:19;100660.88;;;-0.31;100.00
45275;BME280;31019;43.780;25.948;2023-01-31T04:36:45;100648.25;;;-0.36;100.00
45275;BME280;31019;43.780;25.948;2023-01-31T04:39:12;100664.16;;;-0.39;100.00
45275;BME280;31019;43.780;25.948;2023-01-31T04:41:41;100668.97;;;-0.44;100.00
45275;BME280;31019;43.780;25.948;2023-01-31T04:44:08;100669.50;;;-0.50;100.00
45275;BME280;31019;43.780;25.948;2023-01-31T04:46:35;100679.13;;;-0.51;100.00
45275;BME280;31019;43.780;25.948;2023-01-31T04:49:02;100683.53;;;-0.51;100.00
45275;BME280;31019;43.780;25.948;2023-01-31T04:51:29;100674.72;;;-0.60;100.00
45275;BME280;31019;43.780;25.948;2023-01-31T04:53:55;100687.59;;;-0.58;100.00
45275;BME280;31019;43.780;25.948;2023-01-31T04:56:22;100688.66;;;-0.80;100.00
45275;BME280;31019;43.780;25.948;2023-01-31T04:58:50;100691.44;;;-0.72;100.00
45275;BME280;31019;43.780;25.948;2023-01-31T05:01:17;100681.13;;;-0.74;100.00
45275;BME280;31019;43.780;25.948;2023-01-31T05:03:44;100688.00;;;-0.73;100.00
45275;BME280;31019;43.780;25.948;2023-01-31T05:06:11;100688.69;;;-0.71;100.00
45275;BME280;31019;43.780;25.948;2023-01-31T05:08:37;100678.25;;;-0.71;100.00
45275;BME280;31019;43.780;25.948;2023-01-31T05:11:04;100681.28;;;-0.75;100.00
45275;BME280;31019;43.780;25.948;2023-01-31T05:13:32;100678.94;;;-0.68;100.00
45275;BME280;31019;43.780;25.948;2023-01-31T05:16:05;100663.13;;;-0.77;100.00
45275;BME280;31019;43.780;25.948;2023-01-31T05:18:32;100685.09;;;-0.79;100.00
45275;BME280;31019;43.780;25.948;2023-01-31T05:20:59;100681.38;;;-0.77;100.00
45275;BME280;31019;43.780;25.948;2023-01-31T05:23:26;100670.25;;;-0.79;100.00
45275;BME280;31019;43.780;25.948;2023-01-31T05:25:53;100673.28;;;-0.83;100.00
45275;BME280;31019;43.780;25.948;2023-01-31T05:28:20;100678.00;;;-1.08;100.00
45275;BME280;31019;43.780;25.948;2023-01-31T05:30:48;100688.28;;;-1.06;100.00
45275;BME280;31019;43.780;25.948;2023-01-31T05:33:16;100698.03;;;-1.08;100.00
45275;BME280;31019;43.780;25.948;2023-01-31T05:35:45;100695.50;;;-1.20;100.00
45275;BME280;31019;43.780;25.948;2023-01-31T05:38:12;100704.47;;;-1.33;100.00
45275;BME280;31019;43.780;25.948;2023-01-31T05:40:38;100708.19;;;-1.36;100.00
45275;BME280;31019;43.780;25.948;2023-01-31T05:43:05;100710.69;;;-1.25;100.00
45275;BME280;31019;43.780;25.948;2023-01-31T05:45:32;100707.19;;;-1.14;100.00
45275;BME280;31019;43.780;25.948;2023-01-31T05:47:59;100706.28;;;-1.03;100.00
45275;BME280;31019;43.780;25.948;2023-01-31T05:50:27;100713.88;;;-1.21;100.00
45275;BME280;31019;43.780;25.948;2023-01-31T05:52:55;100742.44;;;-1.20;100.00
45275;BME280;31019;43.780;25.948;2023-01-31T05:55:24;100737.81;;;-1.06;100.00
45275;BME280;31019;43.780;25.948;2023-01-31T05:57:51;100741.19;;;-0.85;100.00
45275;BME280;31019;43.780;25.948;2023-01-31T06:00:18;100737.69;;;-0.74;100.00
45275;BME280;31019;43.780;25.948;2023-01-31T06:02:45;100741.41;;;-0.67;100.00
45275;BME280;31019;43.780;25.948;2023-01-31T06:05:13;100754.06;;;-0.62;100.00
45275;BME280;31019;43.780;25.948;2023-01-31T06:07:41;100744.44;;;-0.62;100.00
45275;BME280;31019;43.780;25.948;2023-01-31T06:10:10;100756.13;;;-0.66;100.00
45275;BME280;31019;43.780;25.948;2023-01-31T06:12:37;100757.56;;;-0.83;100.00
45275;BME280;31019;43.780;25.948;2023-01-31T06:15:04;100758.03;;;-0.68;100.00
45275;BME280;31019;43.780;25.948;2023-01-31T06:17:31;100765.22;;;-0.60;100.00
45275;BME280;31019;43.780;25.948;2023-01-31T06:19:58;100760.25;;;-0.63;100.00
45275;BME280;31019;43.780;25.948;2023-01-31T06:22:24;100764.25;;;-0.50;100.00
45275;BME280;31019;43.780;25.948;2023-01-31T06:24:52;100757.41;;;-0.51;100.00
45275;BME280;31019;43.780;25.948;2023-01-31T06:27:19;100755.72;;;-0.52;100.00
45275;BME280;31019;43.780;25.948;2023-01-31T06:29:46;100751.47;;;-0.53;100.00
45275;BME280;31019;43.780;25.948;2023-01-31T07:09:49;100773.44;;;-0.15;100.00
45275;BME280;31019;43.780;25.948;2023-01-31T07:12:16;100762.13;;;-0.15;100.00
45275;BME280;31019;43.780;25.948;2023-01-31T07:14:42;100754.72;;;-0.30;100.00
45275;BME280;31019;43.780;25.948;2023-01-31T07:17:09;100772.72;;;-0.17;100.00
45275;BME280;31019;43.780;25.948;2023-01-31T07:19:36;100778.94;;;0.11;100.00
45275;BME280;31019;43.780;25.948;2023-01-31T07:22:02;100784.84;;;0.23;100.00
45275;BME280;31019;43.780;25.948;2023-01-31T07:24:29;100805.59;;;0.05;100.00
45275;BME280;31019;43.780;25.948;2023-01-31T07:26:57;100801.22;;;0.15;100.00
45275;BME280;31019;43.780;25.948;2023-01-31T07:29:24;100808.09;;;0.26;100.00
45275;BME280;31019;43.780;25.948;2023-01-31T07:31:53;100803.31;;;0.31;100.00
45275;BME280;31019;43.780;25.948;2023-01-31T07:34:20;100803.97;;;0.23;100.00
45275;BME280;31019;43.780;25.948;2023-01-31T07:36:47;100808.38;;;0.33;100.00
45275;BME280;31019;43.780;25.948;2023-01-31T07:39:14;100801.94;;;0.37;100.00
45275;BME280;31019;43.780;25.948;2023-01-31T07:41:41;100800.28;;;0.45;100.00
45275;BME280;31019;43.780;25.948;2023-01-31T07:44:09;100796.84;;;0.55;100.00
45275;BME280;31019;43.780;25.948;2023-01-31T07:46:36;100802.31;;;0.32;100.00
45275;BME280;31019;43.780;25.948;2023-01-31T07:49:03;100804.94;;;0.42;100.00
45275;BME280;31019;43.780;25.948;2023-01-31T07:51:29;100810.00;;;0.63;100.00
45275;BME280;31019;43.780;25.948;2023-01-31T07:53:56;100817.16;;;0.51;100.00
45275;BME280;31019;43.780;25.948;2023-01-31T07:56:23;100822.97;;;0.55;100.00
45275;BME280;31019;43.780;25.948;2023-01-31T07:58:49;100829.69;;;0.57;100.00
45275;BME280;31019;43.780;25.948;2023-01-31T08:01:19;100818.41;;;0.57;100.00
45275;BME280;31019;43.780;25.948;2023-01-31T08:04:05;100820.34;;;0.26;100.00
45275;BME280;31019;43.780;25.948;2023-01-31T08:06:32;100819.78;;;0.12;100.00
45275;BME280;31019;43.780;25.948;2023-01-31T08:08:59;100828.72;;;0.10;100.00
45275;BME280;31019;43.780;25.948;2023-01-31T08:11:26;100831.88;;;0.13;100.00
45275;BME280;31019;43.780;25.948;2023-01-31T08:13:53;100834.22;;;0.07;100.00
45275;BME280;31019;43.780;25.948;2023-01-31T08:16:21;100831.06;;;0.13;100.00
45275;BME280;31019;43.780;25.948;2023-01-31T08:18:48;100813.03;;;0.39;100.00
45275;BME280;31019;43.780;25.948;2023-01-31T08:21:15;100825.97;;;0.60;100.00
45275;BME280;31019;43.780;25.948;2023-01-31T08:23:42;100822.69;;;0.67;100.00
45275;BME280;31019;43.780;25.948;2023-01-31T08:26:11;100834.38;;;0.63;100.00
45275;BME280;31019;43.780;25.948;2023-01-31T08:28:39;100832.88;;;0.61;100.00
45275;BME280;31019;43.780;25.948;2023-01-31T08:31:06;100827.34;;;0.44;100.00
45275;BME280;31019;43.780;25.948;2023-01-31T08:33:38;100814.16;;;0.36;100.00
45275;BME280;31019;43.780;25.948;2023-01-31T08:36:09;100814.28;;;0.44;100.00
45275;BME280;31019;43.780;25.948;2023-01-31T08:38:35;100820.88;;;0.29;100.00
45275;BME280;31019;43.780;25.948;2023-01-31T08:41:02;100829.31;;;0.42;100.00
45275;BME280;31019;43.780;25.948;2023-01-31T08:43:29;100836.84;;;0.65;100.00
45275;BME280;31019;43.780;25.948;2023-01-31T08:45:57;100843.59;;;0.48;100.00
45275;BME280;31019;43.780;25.948;2023-01-31T08:48:23;100846.75;;;0.71;100.00
45275;BME280;31019;43.780;25.948;2023-01-31T08:50:51;100835.91;;;0.47;100.00
45275;BME280;31019;43.780;25.948;2023-01-31T08:53:18;100840.03;;;0.39;100.00
45275;BME280;31019;43.780;25.948;2023-01-31T08:55:45;100837.69;;;0.46;100.00
45275;BME280;31019;43.780;25.948;2023-01-31T08:58:11;100851.25;;;0.20;100.00
45275;BME280;31019;43.780;25.948;2023-01-31T09:00:38;100856.09;;;0.44;100.00
45275;BME280;31019;43.780;25.948;2023-01-31T09:03:05;100842.75;;;0.48;100.00
45275;BME280;31019;43.780;25.948;2023-01-31T09:05:31;100845.66;;;0.64;100.00
45275;BME280;31019;43.780;25.948;2023-01-31T09:07:59;100847.31;;;0.55;100.00
45275;BME280;31019;43.780;25.948;2023-01-31T09:10:26;100845.50;;;0.75;100.00
45275;BME280;31019;43.780;25.948;2023-01-31T09:12:53;100856.25;;;0.62;100.00
45275;BME280;31019;43.780;25.948;2023-01-31T09:15:20;100857.63;;;0.37;100.00
45275;BME280;31019;43.780;25.948;2023-01-31T09:17:46;100851.69;;;0.94;100.00
45275;BME280;31019;43.780;25.948;2023-01-31T09:20:13;100859.41;;;0.56;100.00
45275;BME280;31019;43.780;25.948;2023-01-31T09:22:40;100860.94;;;0.49;100.00
45275;BME280;31019;43.780;25.948;2023-01-31T09:25:08;100857.06;;;0.63;100.00
45275;BME280;31019;43.780;25.948;2023-01-31T09:27:36;100870.56;;;0.78;100.00
45275;BME280;31019;43.780;25.948;2023-01-31T09:30:05;100866.97;;;0.88;100.00
45275;BME280;31019;43.780;25.948;2023-01-31T09:32:32;100863.00;;;0.75;100.00
45275;BME280;31019;43.780;25.948;2023-01-31T09:34:59;100860.50;;;0.34;100.00
45275;BME280;31019;43.780;25.948;2023-01-31T09:37:28;100856.41;;;0.61;100.00
45275;BME280;31019;43.780;25.948;2023-01-31T09:39:55;100852.13;;;0.79;100.00
45275;BME280;31019;43.780;25.948;2023-01-31T09:42:26;100860.78;;;0.60;100.00
45275;BME280;31019;43.780;25.948;2023-01-31T09:45:00;100862.28;;;0.73;100.00
45275;BME280;31019;43.780;25.948;2023-01-31T09:47:30;100853.91;;;0.88;100.00
45275;BME280;31019;43.780;25.948;2023-01-31T09:50:03;100871.78;;;1.12;100.00
45275;BME280;31019;43.780;25.948;2023-01-31T09:52:31;100862.81;;;1.05;100.00
45275;BME280;31019;43.780;25.948;2023-01-31T09:54:58;100866.56;;;0.54;100.00
45275;BME280;31019;43.780;25.948;2023-01-31T09:57:33;100865.44;;;0.96;100.00
45275;BME280;31019;43.780;25.948;2023-01-31T10:00:17;100863.69;;;0.77;100.00
45275;BME280;31019;43.780;25.948;2023-01-31T10:03:06;100864.47;;;1.16;100.00
45275;BME280;31019;43.780;25.948;2023-01-31T10:05:42;100862.41;;;0.90;100.00
45275;BME280;31019;43.780;25.948;2023-01-31T10:08:19;100872.16;;;1.18;100.00
45275;BME280;31019;43.780;25.948;2023-01-31T10:10:53;100866.50;;;1.22;100.00
45275;BME280;31019;43.780;25.948;2023-01-31T10:13:27;100864.22;;;0.90;100.00
45275;BME280;31019;43.780;25.948;2023-01-31T10:16:02;100850.31;;;0.60;100.00
45275;BME280;31019;43.780;25.948;2023-01-31T10:18:33;100848.41;;;0.91;100.00
45275;BME280;31019;43.780;25.948;2023-01-31T10:21:05;100846.44;;;0.94;100.00
45275;BME280;31019;43.780;25.948;2023-01-31T10:23:35;100843.56;;;0.97;100.00
45275;BME280;31019;43.780;25.948;2023-01-31T10:26:08;100845.41;;;1.24;100.00
45275;BME280;31019;43.780;25.948;2023-01-31T10:28:41;100843.66;;;1.62;100.00
45275;BME280;31019;43.780;25.948;2023-01-31T10:31:24;100833.47;;;1.58;100.00
45275;BME280;31019;43.780;25.948;2023-01-31T10:33:54;100832.28;;;1.43;100.00
45275;BME280;31019;43.780;25.948;2023-01-31T10:36:27;100832.19;;;1.90;100.00
45275;BME280;31019;43.780;25.948;2023-01-31T10:38:57;100820.63;;;2.64;100.00
45275;BME280;31019;43.780;25.948;2023-01-31T10:41:34;100821.38;;;2.57;100.00
45275;BME280;31019;43.780;25.948;2023-01-31T10:44:14;100813.00;;;2.53;100.00
45275;BME280;31019;43.780;25.948;2023-01-31T10:46:46;100813.88;;;2.08;100.00
45275;BME280;31019;43.780;25.948;2023-01-31T10:49:13;100803.28;;;2.63;100.00
45275;BME280;31019;43.780;25.948;2023-01-31T10:52:02;100812.69;;;2.56;100.00
45275;BME280;31019;43.780;25.948;2023-01-31T10:54:41;100806.84;;;3.40;100.00
45275;BME280;31019;43.780;25.948;2023-01-31T10:57:14;100811.66;;;3.53;100.00
45275;BME280;31019;43.780;25.948;2023-01-31T10:59:45;100822.75;;;3.73;100.00
45275;BME280;31019;43.780;25.948;2023-01-31T11:02:18;100818.88;;;2.91;100.00
45275;BME280;31019;43.780;25.948;2023-01-31T11:04:46;100815.41;;;2.46;100.00
45275;BME280;31019;43.780;25.948;2023-01-31T11:07:14;100800.19;;;2.68;100.00
45275;BME280;31019;43.780;25.948;2023-01-31T11:09:43;100807.56;;;1.83;100.00
45275;BME280;31019;43.780;25.948;2023-01-31T11:12:12;100802.16;;;2.12;100.00
45275;BME280;31019;43.780;25.948;2023-01-31T11:14:39;100819.00;;;2.45;100.00
45275;BME280;31019;43.780;25.948;2023-01-31T11:17:13;100815.38;;;1.65;100.00
45275;BME280;31019;43.780;25.948;2023-01-31T11:19:45;100812.34;;;2.33;100.00
45275;BME280;31019;43.780;25.948;2023-01-31T11:22:22;100806.28;;;2.94;100.00
45275;BME280;31019;43.780;25.948;2023-01-31T11:24:50;100799.28;;;2.59;100.00
45275;BME280;31019;43.780;25.948;2023-01-31T11:27:25;100800.81;;;2.88;100.00
45275;BME280;31019;43.780;25.948;2023-01-31T11:29:54;100806.22;;;3.12;100.00
45275;BME280;31019;43.780;25.948;2023-01-31T11:32:26;100812.09;;;2.09;100.00
45275;BME280;31019;43.780;25.948;2023-01-31T11:34:55;100807.63;;;2.81;100.00
45275;BME280;31019;43.780;25.948;2023-01-31T11:37:22;100806.53;;;2.65;100.00
45275;BME280;31019;43.780;25.948;2023-01-31T11:39:55;100807.56;;;3.16;100.00
45275;BME280;31019;43.780;25.948;2023-01-31T11:42:21;100808.78;;;3.30;100.00
45275;BME280;31019;43.780;25.948;2023-01-31T11:44:58;100801.94;;;3.11;100.00
45275;BME280;31019;43.780;25.948;2023-01-31T11:47:38;100800.28;;;3.10;100.00
45275;BME280;31019;43.780;25.948;2023-01-31T11:50:18;100799.84;;;3.15;100.00
45275;BME280;31019;43.780;25.948;2023-01-31T11:52:45;100800.59;;;3.07;100.00
45275;BME280;31019;43.780;25.948;2023-01-31T11:55:16;100799.41;;;4.29;100.00
45275;BME280;31019;43.780;25.948;2023-01-31T11:57:43;100801.69;;;5.05;100.00
45275;BME280;31019;43.780;25.948;2023-01-31T12:00:20;100802.00;;;4.12;100.00
45275;BME280;31019;43.780;25.948;2023-01-31T12:03:01;100804.47;;;3.55;100.00
45275;BME280;31019;43.780;25.948;2023-01-31T12:05:36;100793.47;;;2.91;100.00
45275;BME280;31019;43.780;25.948;2023-01-31T12:08:05;100809.34;;;2.90;100.00
45275;BME280;31019;43.780;25.948;2023-01-31T12:10:51;100793.59;;;2.90;100.00
45275;BME280;31019;43.780;25.948;2023-01-31T12:13:19;100802.03;;;3.02;100.00
45275;BME280;31019;43.780;25.948;2023-01-31T12:15:52;100810.84;;;3.18;100.00
45275;BME280;31019;43.780;25.948;2023-01-31T12:18:42;100811.00;;;3.17;100.00
45275;BME280;31019;43.780;25.948;2023-01-31T12:21:13;100814.97;;;2.95;100.00
45275;BME280;31019;43.780;25.948;2023-01-31T12:23:47;100817.97;;;3.00;100.00
45275;BME280;31019;43.780;25.948;2023-01-31T12:26:27;100819.78;;;3.08;100.00
45275;BME280;31019;43.780;25.948;2023-01-31T12:29:12;100814.16;;;3.63;100.00
45275;BME280;31019;43.780;25.948;2023-01-31T12:31:49;100810.84;;;2.48;100.00
45275;BME280;31019;43.780;25.948;2023-01-31T12:34:33;100820.44;;;2.84;100.00
45275;BME280;31019;43.780;25.948;2023-01-31T12:37:18;100820.47;;;2.66;100.00
45275;BME280;31019;43.780;25.948;2023-01-31T12:40:02;100827.69;;;2.46;100.00
45275;BME280;31019;43.780;25.948;2023-01-31T12:42:43;100830.94;;;3.36;100.00
45275;BME280;31019;43.780;25.948;2023-01-31T12:45:25;100830.44;;;4.09;100.00
45275;BME280;31019;43.780;25.948;2023-01-31T12:48:31;100830.41;;;3.58;100.00
45275;BME280;31019;43.780;25.948;2023-01-31T12:51:14;100823.59;;;3.13;100.00
45275;BME280;31019;43.780;25.948;2023-01-31T12:53:50;100832.69;;;2.75;100.00
45275;BME280;31019;43.780;25.948;2023-01-31T12:56:42;100836.72;;;3.13;100.00
45275;BME280;31019;43.780;25.948;2023-01-31T12:59:24;100830.72;;;3.21;100.00
45275;BME280;31019;43.780;25.948;2023-01-31T13:02:01;100844.56;;;3.65;100.00
45275;BME280;31019;43.780;25.948;2023-01-31T13:04:38;100843.97;;;4.47;100.00
45275;BME280;31019;43.780;25.948;2023-01-31T13:07:13;100842.22;;;5.52;100.00
45275;BME280;31019;43.780;25.948;2023-01-31T13:09:44;100844.44;;;5.24;100.00
45275;BME280;31019;43.780;25.948;2023-01-31T13:12:15;100850.53;;;6.42;100.00
45275;BME280;31019;43.780;25.948;2023-01-31T13:14:49;100852.69;;;5.21;100.00
45275;BME280;31019;43.780;25.948;2023-01-31T13:17:22;100862.22;;;4.65;100.00
45275;BME280;31019;43.780;25.948;2023-01-31T13:19:57;100859.78;;;3.96;100.00
45275;BME280;31019;43.780;25.948;2023-01-31T13:22:30;100859.25;;;4.27;100.00
45275;BME280;31019;43.780;25.948;2023-01-31T13:25:10;100858.28;;;3.85;100.00
45275;BME280;31019;43.780;25.948;2023-01-31T13:27:43;100850.34;;;4.28;100.00
45275;BME280;31019;43.780;25.948;2023-01-31T13:30:16;100851.88;;;3.46;100.00
45275;BME280;31019;43.780;25.948;2023-01-31T13:32:47;100845.59;;;3.81;100.00
45275;BME280;31019;43.780;25.948;2023-01-31T13:35:19;100851.31;;;4.19;100.00